createdAt,value
2022-12-24T05:17:39.280Z,6.94
2022-12-24T05:20:06.899Z,6.61
2022-12-24T05:22:52.209Z,6.63
2022-12-24T05:25:40.853Z,6.67
2022-12-24T05:28:07.464Z,6.62
2022-12-24T05:30:34.214Z,6.11
2022-12-24T05:33:00.844Z,6.03
2022-12-24T05:35:27.458Z,6.14
2022-12-24T05:37:58.116Z,5.96
2022-12-24T05:40:24.740Z,5.99
2022-12-24T05:42:51.367Z,5.91
2022-12-24T05:45:17.880Z,6.25
2022-12-24T05:47:44.297Z,6.29
2022-12-24T05:50:11.201Z,5.89
2022-12-24T05:52:37.679Z,5.89
2022-12-24T05:55:04.770Z,6.04
2022-12-24T05:57:31.324Z,5.99
2022-12-24T05:59:57.741Z,6.22
2022-12-24T06:02:24.244Z,6.48
2022-12-24T06:04:50.738Z,6.22
2022-12-24T06:07:17.437Z,6.01
2022-12-24T06:09:46.971Z,6.35
2022-12-24T06:12:23.744Z,6.25
2022-12-24T06:15:17.449Z,6.26
2022-12-24T06:17:47.034Z,6.21
2022-12-24T06:20:14.884Z,6.57
2022-12-24T06:22:48.616Z,6.51
2022-12-24T06:25:23.141Z,6.56
2022-12-24T06:27:49.956Z,6.50
2022-12-24T06:30:18.598Z,6.39
2022-12-24T06:32:45.284Z,6.52
2022-12-24T06:35:12.352Z,6.91
2022-12-24T06:37:47.932Z,6.57
2022-12-24T06:40:14.897Z,6.56
2022-12-24T06:42:41.555Z,6.45
2022-12-24T06:45:09.932Z,6.61
2022-12-24T06:47:37.332Z,6.38
2022-12-24T06:50:04.500Z,6.59
2022-12-24T06:52:31.299Z,6.79
2022-12-24T06:54:58.087Z,6.63
2022-12-24T06:57:46.212Z,6.71
2022-12-24T07:00:22.872Z,6.78
2022-12-24T07:02:54.923Z,6.82
2022-12-24T07:05:34.284Z,6.87
2022-12-24T07:11:21.513Z,6.88
2022-12-24T07:13:58.135Z,6.78
2022-12-24T07:16:33.530Z,6.77
2022-12-24T07:19:06.085Z,7.17
2022-12-24T07:21:36.871Z,7.20
2022-12-24T07:24:11.824Z,6.90
2022-12-24T07:26:41.972Z,7.10
2022-12-24T07:29:08.963Z,7.03
2022-12-24T07:31:38.513Z,7.01
2022-12-24T07:34:05.675Z,7.05
2022-12-24T07:36:32.788Z,6.81
2022-12-24T07:39:01.801Z,6.74
2022-12-24T07:41:28.873Z,6.56
2022-12-24T07:43:58.822Z,6.30
2022-12-24T07:46:27.212Z,6.67
2022-12-24T07:48:54.004Z,6.76
2022-12-24T07:51:20.702Z,7.02
2022-12-24T07:53:48.011Z,7.23
2022-12-24T07:56:15.598Z,7.39
2022-12-24T07:58:42.704Z,6.97
2022-12-24T08:01:10.242Z,7.35
2022-12-24T08:03:36.839Z,7.41
2022-12-24T08:06:03.527Z,7.63
2022-12-24T08:08:30.136Z,7.68
2022-12-24T08:11:02.765Z,7.68
2022-12-24T08:13:29.907Z,7.42
2022-12-24T08:15:57.028Z,7.46
2022-12-24T08:18:24.185Z,7.56
2022-12-24T08:20:51.512Z,7.43
2022-12-24T08:23:18.898Z,7.38
2022-12-24T08:25:48.408Z,7.63
2022-12-24T08:28:22.302Z,7.20
2022-12-24T08:30:53.387Z,7.01
2022-12-24T08:33:32.017Z,6.69
2022-12-24T08:36:03.984Z,6.74
2022-12-24T08:39:19.394Z,6.49
2022-12-24T08:45:56.363Z,6.54
2022-12-24T08:52:57.139Z,6.80
2022-12-24T08:55:28.287Z,6.90
2022-12-24T09:01:59.679Z,7.03
2022-12-24T09:04:53.501Z,7.01
2022-12-24T09:07:35.543Z,6.79
2022-12-24T09:10:20.369Z,6.95
2022-12-24T09:13:26.438Z,7.07
2022-12-24T09:16:12.863Z,7.16
2022-12-24T09:19:03.879Z,7.12
2022-12-24T09:21:55.535Z,7.10
2022-12-24T09:27:35.148Z,6.86
2022-12-24T09:30:07.695Z,6.96
2022-12-24T09:32:49.555Z,6.63
2022-12-24T09:38:12.231Z,7.45
2022-12-24T09:40:45.708Z,7.05
2022-12-24T09:43:22.183Z,7.20
2022-12-24T09:49:47.839Z,7.63
2022-12-24T09:52:27.724Z,7.54
2022-12-24T09:55:33.712Z,7.38
2022-12-24T09:58:10.647Z,7.81
2022-12-24T10:01:06.970Z,7.56
2022-12-24T10:03:33.765Z,7.31
2022-12-24T10:06:07.621Z,7.43
2022-12-24T10:08:39.036Z,7.37
2022-12-24T10:12:01.507Z,7.25
2022-12-24T10:15:03.123Z,7.05
2022-12-24T10:18:36.084Z,7.00
2022-12-24T10:25:37.910Z,7.22
2022-12-24T10:28:13.783Z,7.57
2022-12-24T10:30:41.778Z,7.43
2022-12-24T10:33:31.315Z,7.26
2022-12-24T10:36:54.366Z,7.20
2022-12-24T10:40:02.771Z,7.49
2022-12-24T10:42:50.677Z,7.57
2022-12-24T10:45:30.165Z,7.55
2022-12-24T10:48:04.981Z,7.39
2022-12-24T10:50:35.842Z,7.09
2022-12-24T10:53:43.659Z,7.26
2022-12-24T10:56:41.341Z,7.29
2022-12-24T10:59:29.057Z,7.15
2022-12-24T11:02:02.395Z,7.30
2022-12-24T11:04:36.155Z,7.29
2022-12-24T11:07:19.496Z,7.56
2022-12-24T11:09:56.688Z,7.47
2022-12-24T11:12:27.500Z,7.71
2022-12-24T11:15:17.204Z,7.73
2022-12-24T11:18:04.875Z,7.93
2022-12-24T11:20:34.360Z,8.22
2022-12-24T11:23:02.403Z,8.26
2022-12-24T11:25:38.705Z,8.19
2022-12-24T11:28:19.848Z,8.41
2022-12-24T11:31:20.027Z,8.03
2022-12-24T11:33:50.370Z,8.14
2022-12-24T11:36:21.920Z,8.72
2022-12-24T11:38:59.068Z,8.86
2022-12-24T11:41:26.602Z,8.75
2022-12-24T11:44:03.732Z,8.86
2022-12-24T11:46:54.446Z,8.46
2022-12-24T11:49:32.052Z,8.41
2022-12-24T11:52:10.841Z,8.83
2022-12-24T11:55:16.524Z,8.94
2022-12-24T11:58:21.977Z,8.73
2022-12-24T12:01:15.818Z,8.84
2022-12-24T12:03:51.178Z,8.87
2022-12-24T12:06:40.512Z,9.21
2022-12-24T12:09:23.651Z,9.39
2022-12-24T12:11:58.756Z,9.65
2022-12-24T12:14:41.715Z,9.65
2022-12-24T12:17:47.739Z,9.61
2022-12-24T12:20:26.793Z,9.88
2022-12-24T12:23:02.596Z,10.01
2022-12-24T12:25:35.132Z,9.50
2022-12-24T12:28:06.279Z,9.64
2022-12-24T12:30:35.737Z,9.56
2022-12-24T12:33:19.359Z,11.43
2022-12-24T12:35:48.627Z,13.24
2022-12-24T12:38:24.863Z,14.24
2022-12-24T12:41:29.150Z,14.06
2022-12-24T12:44:27.806Z,14.22
2022-12-24T12:47:28.381Z,12.72
2022-12-24T12:50:23.152Z,12.09
2022-12-24T12:52:59.045Z,13.39
2022-12-24T12:55:38.025Z,11.77
2022-12-24T12:58:12.938Z,11.77
2022-12-24T13:01:16.614Z,10.61
2022-12-24T13:04:08.160Z,9.95
2022-12-24T13:07:17.083Z,9.87
2022-12-24T13:10:12.030Z,9.49
2022-12-24T13:13:32.782Z,9.89
2022-12-24T13:16:38.997Z,10.98
2022-12-24T13:19:18.363Z,13.35
2022-12-24T13:22:34.658Z,13.85
2022-12-24T13:25:01.299Z,14.42
2022-12-24T13:27:35.329Z,13.74
2022-12-24T13:30:39.779Z,12.57
2022-12-24T13:33:11.273Z,12.01
2022-12-24T13:35:57.358Z,11.49
2022-12-24T13:38:27.904Z,11.06
2022-12-24T13:40:56.184Z,11.08
2022-12-24T13:43:22.736Z,10.92
2022-12-24T13:45:51.080Z,11.10
2022-12-24T13:48:33.701Z,11.89
2022-12-24T13:51:23.546Z,11.53
2022-12-24T13:53:58.898Z,10.58
2022-12-24T13:56:27.041Z,10.43
2022-12-24T13:59:11.860Z,10.69
2022-12-24T14:01:42.451Z,10.76
2022-12-24T14:04:21.489Z,10.84
2022-12-24T14:06:52.300Z,10.38
2022-12-24T14:09:24.988Z,10.33
2022-12-24T14:12:05.743Z,10.30
2022-12-24T14:14:41.872Z,10.03
2022-12-24T14:17:22.051Z,9.99
2022-12-24T14:19:52.429Z,9.80
2022-12-24T14:22:44.091Z,8.80
2022-12-24T14:25:17.640Z,8.85
2022-12-24T14:27:51.392Z,9.01
2022-12-24T14:30:27.019Z,8.98
2022-12-24T14:32:54.546Z,9.39
2022-12-24T14:35:39.958Z,9.06
2022-12-24T14:38:12.618Z,8.95
2022-12-24T14:40:56.012Z,9.00
2022-12-24T14:44:01.403Z,8.70
2022-12-24T14:46:39.433Z,8.89
2022-12-24T14:49:30.945Z,9.10
2022-12-24T14:52:37.800Z,8.81
2022-12-24T14:54:59.872Z,8.75
2022-12-24T14:57:27.385Z,8.27
2022-12-24T14:59:56.422Z,8.50
2022-12-24T15:02:48.403Z,8.27
2022-12-24T15:05:28.780Z,8.14
2022-12-24T15:08:00.127Z,8.18
2022-12-24T15:10:38.284Z,8.45
2022-12-24T15:13:09.363Z,8.06
2022-12-24T15:15:36.590Z,8.05
2022-12-24T15:18:04.727Z,7.89
2022-12-24T15:20:31.688Z,7.91
2022-12-24T15:22:58.938Z,8.34
2022-12-24T15:25:29.767Z,8.14
2022-12-24T15:27:57.075Z,8.20
2022-12-24T15:30:27.604Z,8.16
2022-12-24T15:32:56.548Z,8.49
2022-12-24T15:35:31.374Z,8.25
2022-12-24T15:37:59.122Z,8.31
2022-12-24T15:40:26.478Z,8.14
2022-12-24T15:42:53.523Z,8.19
2022-12-24T15:45:29.179Z,8.13
2022-12-24T15:47:59.168Z,8.02
2022-12-24T15:50:32.657Z,8.00
2022-12-24T15:53:20.944Z,7.87
2022-12-24T15:56:12.544Z,7.74
2022-12-24T15:58:41.816Z,7.70
2022-12-24T16:01:08.375Z,7.65
2022-12-24T16:03:39.996Z,7.66
2022-12-24T16:06:08.288Z,7.79
2022-12-24T16:08:38.343Z,7.81
2022-12-24T16:11:21.942Z,7.68
2022-12-24T16:13:51.427Z,7.54
2022-12-24T16:16:21.510Z,8.00
2022-12-24T16:18:55.958Z,8.21
2022-12-24T16:21:38.962Z,8.35
2022-12-24T16:24:06.251Z,8.47
2022-12-24T16:26:35.891Z,8.19
2022-12-24T16:29:02.494Z,8.24
2022-12-24T16:31:33.070Z,8.29
2022-12-24T16:34:01.355Z,7.82
2022-12-24T16:36:29.131Z,8.03
2022-12-24T16:39:15.962Z,8.03
2022-12-24T16:42:01.106Z,8.18
2022-12-24T16:44:29.184Z,7.70
2022-12-24T16:46:56.550Z,7.75
2022-12-24T16:49:23.595Z,7.61
2022-12-24T16:51:50.080Z,7.55
2022-12-24T16:54:16.569Z,7.55
2022-12-24T16:56:43.896Z,7.46
2022-12-24T16:59:16.346Z,7.63
2022-12-24T17:01:43.051Z,7.39
2022-12-24T17:04:09.883Z,7.68
2022-12-24T17:06:36.873Z,7.47
2022-12-24T17:09:03.671Z,7.61
2022-12-24T17:11:30.327Z,7.53
2022-12-24T17:13:57.043Z,7.48
2022-12-24T17:16:23.784Z,7.51
2022-12-24T17:18:52.053Z,7.46
2022-12-24T17:21:19.032Z,7.27
2022-12-24T17:23:45.909Z,7.44
2022-12-24T17:26:15.257Z,7.23
2022-12-24T17:28:42.779Z,7.30
2022-12-24T17:31:10.500Z,7.14
2022-12-24T17:33:36.993Z,7.38
2022-12-24T17:36:04.096Z,7.63
2022-12-24T17:38:30.632Z,7.31
2022-12-24T17:41:01.991Z,7.22
2022-12-24T17:43:28.657Z,7.02
2022-12-24T17:45:55.427Z,7.36
2022-12-24T17:48:22.172Z,7.21
2022-12-24T17:50:48.749Z,7.39
2022-12-24T17:53:15.467Z,6.81
2022-12-24T17:55:43.134Z,7.06
2022-12-24T17:58:11.139Z,6.96
2022-12-24T18:00:38.920Z,7.16
2022-12-24T18:03:05.673Z,6.93
2022-12-24T18:05:35.823Z,6.86
2022-12-24T18:08:02.577Z,7.18
2022-12-24T18:10:30.104Z,7.31
2022-12-24T18:12:56.648Z,7.51
2022-12-24T18:15:23.298Z,7.37
2022-12-24T18:17:53.993Z,7.30
2022-12-24T18:20:22.487Z,7.41
2022-12-24T18:22:49.206Z,7.46
2022-12-24T18:25:15.975Z,7.48
2022-12-24T18:27:42.451Z,7.44
2022-12-24T18:30:09.949Z,7.60
2022-12-24T18:32:36.805Z,7.73
2022-12-24T18:35:04.125Z,7.54
2022-12-24T18:37:30.664Z,7.34
2022-12-24T18:39:57.250Z,7.48
2022-12-24T18:42:23.870Z,7.70
2022-12-24T18:44:50.437Z,7.04
2022-12-24T18:47:16.956Z,7.23
2022-12-24T18:49:43.497Z,7.18
2022-12-24T18:52:11.671Z,7.34
2022-12-24T18:54:39.948Z,7.47
2022-12-24T18:57:07.294Z,7.24
2022-12-24T18:59:33.877Z,7.51
2022-12-24T19:02:00.445Z,7.72
2022-12-24T19:04:27.073Z,7.82
2022-12-24T19:06:53.788Z,7.91
2022-12-24T19:09:21.007Z,7.97
2022-12-24T19:11:47.570Z,8.03
2022-12-24T19:14:14.252Z,8.03
2022-12-24T19:16:41.018Z,8.01
2022-12-24T19:19:09.239Z,8.01
2022-12-24T19:21:36.063Z,7.95
2022-12-24T19:24:02.700Z,8.05
2022-12-24T19:26:29.187Z,8.06
2022-12-24T19:28:55.773Z,8.01
2022-12-24T19:31:24.652Z,7.81
2022-12-24T19:33:54.616Z,8.09
2022-12-24T19:36:24.044Z,8.10
2022-12-24T19:38:50.658Z,8.16
2022-12-24T19:41:19.778Z,8.16
2022-12-24T19:43:49.002Z,8.08
2022-12-24T19:46:18.195Z,8.10
2022-12-24T19:48:50.196Z,8.12
2022-12-24T19:51:17.496Z,8.15
2022-12-24T19:53:44.534Z,8.13
2022-12-24T19:56:15.335Z,8.06
2022-12-24T19:58:42.333Z,7.75
2022-12-24T20:01:15.539Z,7.88
2022-12-24T20:03:43.856Z,7.82
2022-12-24T20:06:10.351Z,7.77
2022-12-24T20:08:38.368Z,7.79
2022-12-24T20:11:07.561Z,7.81
2022-12-24T20:13:34.915Z,7.73
2022-12-24T20:16:10.421Z,7.73
2022-12-24T20:19:03.441Z,7.75
2022-12-24T20:21:30.486Z,7.70
2022-12-24T20:23:56.958Z,7.68
2022-12-24T20:26:25.797Z,7.65
2022-12-24T20:28:53.070Z,7.52
2022-12-24T20:31:25.506Z,7.56
2022-12-24T20:33:52.718Z,7.60
2022-12-24T20:36:21.245Z,7.60
2022-12-24T20:38:54.432Z,7.56
2022-12-24T20:41:24.711Z,7.56
2022-12-24T20:43:51.659Z,7.56
2022-12-24T20:46:21.218Z,7.53
2022-12-24T20:48:53.047Z,7.54
2022-12-24T20:51:25.482Z,7.16
2022-12-24T20:53:57.693Z,6.89
2022-12-24T20:56:25.287Z,6.77
2022-12-24T20:58:52.380Z,6.94
2022-12-24T21:01:24.261Z,6.99
2022-12-24T21:03:51.331Z,7.13
2022-12-24T21:06:19.286Z,6.99
2022-12-24T21:08:48.466Z,6.93
2022-12-24T21:11:33.506Z,6.79
2022-12-24T21:14:02.038Z,6.84
2022-12-24T21:16:30.366Z,6.87
2022-12-24T21:18:56.898Z,7.00
2022-12-24T21:21:23.441Z,7.05
2022-12-24T21:23:49.892Z,7.04
2022-12-24T21:26:16.338Z,7.28
2022-12-24T21:28:45.281Z,7.42
2022-12-24T21:31:13.727Z,7.47
2022-12-24T21:33:40.436Z,7.54
2022-12-24T21:36:07.493Z,7.29
2022-12-24T21:38:35.104Z,7.17
2022-12-24T21:41:10.785Z,7.23
2022-12-24T21:43:49.999Z,7.33
2022-12-24T21:46:21.708Z,7.44
2022-12-24T21:49:09.701Z,7.33
2022-12-24T21:51:36.841Z,7.35
2022-12-24T21:54:22.059Z,7.42
2022-12-24T21:57:07.237Z,7.50
2022-12-24T21:59:38.298Z,7.40
2022-12-24T22:02:04.977Z,7.43
2022-12-24T22:04:32.803Z,7.51
2022-12-24T22:07:17.871Z,7.58
2022-12-24T22:10:03.020Z,7.48
2022-12-24T22:12:31.706Z,7.36
2022-12-24T22:14:58.824Z,7.32
2022-12-24T22:17:27.038Z,7.21
2022-12-24T22:19:54.671Z,7.33
2022-12-24T22:22:22.138Z,7.25
2022-12-24T22:24:48.582Z,7.15
2022-12-24T22:27:15.105Z,7.19
2022-12-24T22:29:41.612Z,7.21
2022-12-24T22:32:11.075Z,7.25
2022-12-24T22:34:37.656Z,7.28
2022-12-24T22:37:04.171Z,7.41
2022-12-24T22:39:30.702Z,7.51
2022-12-24T22:41:57.972Z,7.39
2022-12-24T22:44:24.789Z,7.34
2022-12-24T22:46:51.230Z,7.40
2022-12-24T22:49:17.719Z,7.48
2022-12-24T22:51:44.223Z,7.58
2022-12-24T22:54:10.705Z,7.39
2022-12-24T22:56:41.304Z,7.31
2022-12-24T22:59:12.168Z,7.40
